sensor_id;sensor_type;location;lat;lon;timestamp;temperature;humidity
10051;DHT22;5065;46.942;7.432;2023-04-15T00:02:15;11.10;99.90
10051;DHT22;5065;46.942;7.432;2023-04-15T00:04:44;11.20;99.90
10051;DHT22;5065;46.942;7.432;2023-04-15T00:07:11;11.10;99.90
10051;DHT22;5065;46.942;7.432;2023-04-15T00:09:39;11.10;99.90
10051;DHT22;5065;46.942;7.432;2023-04-15T00:12:07;11.10;99.90
10051;DHT22;5065;46.942;7.432;2023-04-15T00:14:34;11.10;99.90
10051;DHT22;5065;46.942;7.432;2023-04-15T00:17:02;11.10;99.90
10051;DHT22;5065;46.942;7.432;2023-04-15T00:19:30;11.20;99.90
10051;DHT22;5065;46.942;7.432;2023-04-15T00:21:58;11.10;99.90
10051;DHT22;5065;46.942;7.432;2023-04-15T00:24:26;11.20;99.90
10051;DHT22;5065;46.942;7.432;2023-04-15T00:26:53;11.20;99.90
10051;DHT22;5065;46.942;7.432;2023-04-15T00:29:20;11.20;99.90
10051;DHT22;5065;46.942;7.432;2023-04-15T00:31:47;11.20;99.90
10051;DHT22;5065;46.942;7.432;2023-04-15T00:34:15;11.20;99.90
10051;DHT22;5065;46.942;7.432;2023-04-15T00:36:42;11.20;99.90
10051;DHT22;5065;46.942;7.432;2023-04-15T00:39:10;11.20;99.90
10051;DHT22;5065;46.942;7.432;2023-04-15T00:41:38;11.20;99.90
10051;DHT22;5065;46.942;7.432;2023-04-15T00:44:05;11.10;99.90
10051;DHT22;5065;46.942;7.432;2023-04-15T00:46:35;11.10;99.90
10051;DHT22;5065;46.942;7.432;2023-04-15T00:49:03;11.10;99.90
10051;DHT22;5065;46.942;7.432;2023-04-15T00:51:31;11.10;99.90
10051;DHT22;5065;46.942;7.432;2023-04-15T00:54:01;11.00;99.90
10051;DHT22;5065;46.942;7.432;2023-04-15T00:56:30;11.10;99.90
10051;DHT22;5065;46.942;7.432;2023-04-15T00:58:58;11.10;99.90
10051;DHT22;5065;46.942;7.432;2023-04-15T01:01:25;11.00;99.90
10051;DHT22;5065;46.942;7.432;2023-04-15T01:03:55;11.00;99.90
10051;DHT22;5065;46.942;7.432;2023-04-15T01:06:22;11.00;99.90
10051;DHT22;5065;46.942;7.432;2023-04-15T01:08:50;11.00;99.90
10051;DHT22;5065;46.942;7.432;2023-04-15T01:11:17;11.00;99.90
10051;DHT22;5065;46.942;7.432;2023-04-15T01:13:46;11.00;99.90
10051;DHT22;5065;46.942;7.432;2023-04-15T01:16:13;11.00;99.90
10051;DHT22;5065;46.942;7.432;2023-04-15T01:18:41;11.00;99.90
10051;DHT22;5065;46.942;7.432;2023-04-15T01:21:09;10.90;99.90
10051;DHT22;5065;46.942;7.432;2023-04-15T01:23:37;11.00;99.90
10051;DHT22;5065;46.942;7.432;2023-04-15T01:26:07;10.90;99.90
10051;DHT22;5065;46.942;7.432;2023-04-15T01:28:35;10.90;99.90
10051;DHT22;5065;46.942;7.432;2023-04-15T01:31:07;10.90;99.90
10051;DHT22;5065;46.942;7.432;2023-04-15T01:33:35;11.00;99.90
10051;DHT22;5065;46.942;7.432;2023-04-15T01:36:03;10.90;99.90
10051;DHT22;5065;46.942;7.432;2023-04-15T01:38:32;11.00;99.90
10051;DHT22;5065;46.942;7.432;2023-04-15T01:40:59;10.90;99.90
10051;DHT22;5065;46.942;7.432;2023-04-15T01:43:27;10.90;99.90
10051;DHT22;5065;46.942;7.432;2023-04-15T01:45:54;11.00;99.90
10051;DHT22;5065;46.942;7.432;2023-04-15T01:48:22;10.90;99.90
10051;DHT22;5065;46.942;7.432;2023-04-15T01:50:49;10.90;99.90
10051;DHT22;5065;46.942;7.432;2023-04-15T01:53:16;10.90;99.90
10051;DHT22;5065;46.942;7.432;2023-04-15T01:55:44;10.90;99.90
10051;DHT22;5065;46.942;7.432;2023-04-15T01:58:11;10.90;99.90
10051;DHT22;5065;46.942;7.432;2023-04-15T02:00:40;10.90;99.90
10051;DHT22;5065;46.942;7.432;2023-04-15T02:03:07;10.90;99.90
10051;DHT22;5065;46.942;7.432;2023-04-15T02:05:34;10.90;99.90
10051;DHT22;5065;46.942;7.432;2023-04-15T02:08:01;10.90;99.90
10051;DHT22;5065;46.942;7.432;2023-04-15T02:10:29;10.90;99.90
10051;DHT22;5065;46.942;7.432;2023-04-15T02:12:56;10.90;99.90
10051;DHT22;5065;46.942;7.432;2023-04-15T02:15:23;10.90;99.90
10051;DHT22;5065;46.942;7.432;2023-04-15T02:17:52;10.90;99.90
10051;DHT22;5065;46.942;7.432;2023-04-15T02:20:20;10.90;99.90
10051;DHT22;5065;46.942;7.432;2023-04-15T02:22:48;10.90;99.90
10051;DHT22;5065;46.942;7.432;2023-04-15T02:25:15;10.90;99.90
10051;DHT22;5065;46.942;7.432;2023-04-15T02:27:43;10.90;99.90
10051;DHT22;5065;46.942;7.432;2023-04-15T02:30:10;10.90;99.90
10051;DHT22;5065;46.942;7.432;2023-04-15T02:32:37;10.90;99.90
10051;DHT22;5065;46.942;7.432;2023-04-15T02:35:07;10.90;99.90
10051;DHT22;5065;46.942;7.432;2023-04-15T02:37:36;10.90;99.90
10051;DHT22;5065;46.942;7.432;2023-04-15T02:40:08;10.90;99.90
10051;DHT22;5065;46.942;7.432;2023-04-15T02:42:37;10.80;99.90
10051;DHT22;5065;46.942;7.432;2023-04-15T02:45:05;10.80;99.90
10051;DHT22;5065;46.942;7.432;2023-04-15T02:47:33;10.80;99.90
10051;DHT22;5065;46.942;7.432;2023-04-15T02:50:01;10.80;99.90
10051;DHT22;5065;46.942;7.432;2023-04-15T02:52:30;10.80;99.90
10051;DHT22;5065;46.942;7.432;2023-04-15T02:54:57;10.80;99.90
10051;DHT22;5065;46.942;7.432;2023-04-15T02:57:27;10.70;99.90
10051;DHT22;5065;46.942;7.432;2023-04-15T02:59:55;10.80;99.90
10051;DHT22;5065;46.942;7.432;2023-04-15T03:02:22;10.70;99.90
10051;DHT22;5065;46.942;7.432;2023-04-15T03:04:49;10.70;99.90
10051;DHT22;5065;46.942;7.432;2023-04-15T03:07:17;10.70;99.90
10051;DHT22;5065;46.942;7.432;2023-04-15T03:09:45;10.70;99.90
10051;DHT22;5065;46.942;7.432;2023-04-15T03:12:13;10.70;99.90
10051;DHT22;5065;46.942;7.432;2023-04-15T03:14:40;10.70;99.90
10051;DHT22;5065;46.942;7.432;2023-04-15T03:17:08;10.70;99.90
10051;DHT22;5065;46.942;7.432;2023-04-15T03:19:35;10.70;99.90
10051;DHT22;5065;46.942;7.432;2023-04-15T03:22:02;10.70;99.90
10051;DHT22;5065;46.942;7.432;2023-04-15T03:24:29;10.60;99.90
10051;DHT22;5065;46.942;7.432;2023-04-15T03:26:58;10.60;99.90
10051;DHT22;5065;46.942;7.432;2023-04-15T03:29:25;10.60;99.90
10051;DHT22;5065;46.942;7.432;2023-04-15T03:31:53;10.60;99.90
10051;DHT22;5065;46.942;7.432;2023-04-15T03:34:20;10.60;99.90
10051;DHT22;5065;46.942;7.432;2023-04-15T03:36:47;10.50;99.90
10051;DHT22;5065;46.942;7.432;2023-04-15T03:39:14;10.50;99.90
10051;DHT22;5065;46.942;7.432;2023-04-15T03:41:41;10.50;99.90
10051;DHT22;5065;46.942;7.432;2023-04-15T03:44:10;10.40;99.90
10051;DHT22;5065;46.942;7.432;2023-04-15T03:46:37;10.50;99.90
10051;DHT22;5065;46.942;7.432;2023-04-15T03:49:05;10.40;99.90
10051;DHT22;5065;46.942;7.432;2023-04-15T03:51:33;10.40;99.90
10051;DHT22;5065;46.942;7.432;2023-04-15T03:54:00;10.40;99.90
10051;DHT22;5065;46.942;7.432;2023-04-15T03:56:28;10.30;99.90
10051;DHT22;5065;46.942;7.432;2023-04-15T03:58:55;10.30;99.90
10051;DHT22;5065;46.942;7.432;2023-04-15T04:01:23;10.30;99.90
10051;DHT22;5065;46.942;7.432;2023-04-15T04:03:50;10.20;99.90
10051;DHT22;5065;46.942;7.432;2023-04-15T04:06:18;10.20;99.90
10051;DHT22;5065;46.942;7.432;2023-04-15T04:08:45;10.20;99.90
10051;DHT22;5065;46.942;7.432;2023-04-15T04:11:12;10.20;99.90
10051;DHT22;5065;46.942;7.432;2023-04-15T04:13:39;10.20;99.90
10051;DHT22;5065;46.942;7.432;2023-04-15T04:16:07;10.20;99.90
10051;DHT22;5065;46.942;7.432;2023-04-15T04:18:36;10.20;99.90
10051;DHT22;5065;46.942;7.432;2023-04-15T04:21:03;10.10;99.90
10051;DHT22;5065;46.942;7.432;2023-04-15T04:23:30;10.00;99.90
10051;DHT22;5065;46.942;7.432;2023-04-15T04:25:57;10.00;99.90
10051;DHT22;5065;46.942;7.432;2023-04-15T04:28:24;9.90;99.90
10051;DHT22;5065;46.942;7.432;2023-04-15T04:30:52;9.80;99.90
10051;DHT22;5065;46.942;7.432;2023-04-15T04:33:19;9.70;99.90
10051;DHT22;5065;46.942;7.432;2023-04-15T04:35:47;9.70;99.90
10051;DHT22;5065;46.942;7.432;2023-04-15T04:38:15;9.70;99.90
10051;DHT22;5065;46.942;7.432;2023-04-15T04:40:42;9.70;99.90
10051;DHT22;5065;46.942;7.432;2023-04-15T04:43:09;9.70;99.90
10051;DHT22;5065;46.942;7.432;2023-04-15T04:45:36;9.60;99.90
10051;DHT22;5065;46.942;7.432;2023-04-15T04:48:04;9.60;99.90
10051;DHT22;5065;46.942;7.432;2023-04-15T04:50:31;9.60;99.90
10051;DHT22;5065;46.942;7.432;2023-04-15T04:53:00;9.60;99.90
10051;DHT22;5065;46.942;7.432;2023-04-15T04:55:28;9.60;99.90
10051;DHT22;5065;46.942;7.432;2023-04-15T04:57:56;9.60;99.90
10051;DHT22;5065;46.942;7.432;2023-04-15T05:00:23;9.60;99.90
10051;DHT22;5065;46.942;7.432;2023-04-15T05:02:50;9.60;99.90
10051;DHT22;5065;46.942;7.432;2023-04-15T05:05:18;9.50;99.90
10051;DHT22;5065;46.942;7.432;2023-04-15T05:07:45;9.50;99.90
10051;DHT22;5065;46.942;7.432;2023-04-15T05:10:15;9.50;99.90
10051;DHT22;5065;46.942;7.432;2023-04-15T05:12:43;9.50;99.90
10051;DHT22;5065;46.942;7.432;2023-04-15T05:15:10;9.40;99.90
10051;DHT22;5065;46.942;7.432;2023-04-15T05:17:38;9.40;99.90
10051;DHT22;5065;46.942;7.432;2023-04-15T05:20:06;9.40;99.90
10051;DHT22;5065;46.942;7.432;2023-04-15T05:22:34;9.40;99.90
10051;DHT22;5065;46.942;7.432;2023-04-15T05:25:01;9.40;99.90
10051;DHT22;5065;46.942;7.432;2023-04-15T05:27:30;9.40;99.90
10051;DHT22;5065;46.942;7.432;2023-04-15T05:29:57;9.40;99.90
10051;DHT22;5065;46.942;7.432;2023-04-15T05:32:24;9.40;99.90
10051;DHT22;5065;46.942;7.432;2023-04-15T05:34:51;9.40;99.90
10051;DHT22;5065;46.942;7.432;2023-04-15T05:37:18;9.30;99.90
10051;DHT22;5065;46.942;7.432;2023-04-15T05:39:47;9.20;99.90
10051;DHT22;5065;46.942;7.432;2023-04-15T05:42:14;9.20;99.90
10051;DHT22;5065;46.942;7.432;2023-04-15T05:44:43;9.30;99.90
10051;DHT22;5065;46.942;7.432;2023-04-15T05:47:10;9.20;99.90
10051;DHT22;5065;46.942;7.432;2023-04-15T05:49:37;9.20;99.90
10051;DHT22;5065;46.942;7.432;2023-04-15T05:52:05;9.20;99.90
10051;DHT22;5065;46.942;7.432;2023-04-15T05:54:32;9.20;99.90
10051;DHT22;5065;46.942;7.432;2023-04-15T05:56:59;9.20;99.90
10051;DHT22;5065;46.942;7.432;2023-04-15T05:59:26;9.20;99.90
10051;DHT22;5065;46.942;7.432;2023-04-15T06:01:57;9.20;99.90
10051;DHT22;5065;46.942;7.432;2023-04-15T06:04:24;9.30;99.90
10051;DHT22;5065;46.942;7.432;2023-04-15T06:06:52;9.30;99.90
10051;DHT22;5065;46.942;7.432;2023-04-15T06:09:19;9.20;99.90
10051;DHT22;5065;46.942;7.432;2023-04-15T06:11:46;9.20;99.90
10051;DHT22;5065;46.942;7.432;2023-04-15T06:14:13;9.30;99.90
10051;DHT22;5065;46.942;7.432;2023-04-15T06:16:40;9.30;99.90
10051;DHT22;5065;46.942;7.432;2023-04-15T06:19:09;9.30;99.90
10051;DHT22;5065;46.942;7.432;2023-04-15T06:21:37;9.30;99.90
10051;DHT22;5065;46.942;7.432;2023-04-15T06:24:04;9.20;99.90
10051;DHT22;5065;46.942;7.432;2023-04-15T06:26:31;9.20;99.90
10051;DHT22;5065;46.942;7.432;2023-04-15T06:28:59;9.20;99.90
10051;DHT22;5065;46.942;7.432;2023-04-15T06:31:26;9.20;99.90
10051;DHT22;5065;46.942;7.432;2023-04-15T06:33:53;9.20;99.90
10051;DHT22;5065;46.942;7.432;2023-04-15T06:36:22;9.20;99.90
10051;DHT22;5065;46.942;7.432;2023-04-15T06:38:49;9.20;99.90
10051;DHT22;5065;46.942;7.432;2023-04-15T06:41:16;9.20;99.90
10051;DHT22;5065;46.942;7.432;2023-04-15T06:43:44;9.20;99.90
10051;DHT22;5065;46.942;7.432;2023-04-15T06:46:11;9.20;99.90
10051;DHT22;5065;46.942;7.432;2023-04-15T06:48:38;9.10;99.90
10051;DHT22;5065;46.942;7.432;2023-04-15T06:51:05;9.20;99.90
10051;DHT22;5065;46.942;7.432;2023-04-15T06:53:34;9.20;99.90
10051;DHT22;5065;46.942;7.432;2023-04-15T06:56:06;9.20;99.90
10051;DHT22;5065;46.942;7.432;2023-04-15T06:58:34;9.20;99.90
10051;DHT22;5065;46.942;7.432;2023-04-15T07:01:01;9.10;99.90
10051;DHT22;5065;46.942;7.432;2023-04-15T07:03:28;9.10;99.90
10051;DHT22;5065;46.942;7.432;2023-04-15T07:05:55;9.00;99.90
10051;DHT22;5065;46.942;7.432;2023-04-15T07:08:23;9.10;99.90
10051;DHT22;5065;46.942;7.432;2023-04-15T07:10:51;9.10;99.90
10051;DHT22;5065;46.942;7.432;2023-04-15T07:13:19;9.00;99.90
10051;DHT22;5065;46.942;7.432;2023-04-15T07:15:46;9.00;99.90
10051;DHT22;5065;46.942;7.432;2023-04-15T07:18:13;9.10;99.90
10051;DHT22;5065;46.942;7.432;2023-04-15T07:20:40;9.10;99.90
10051;DHT22;5065;46.942;7.432;2023-04-15T07:23:07;9.10;99.90
10051;DHT22;5065;46.942;7.432;2023-04-15T07:25:35;9.10;99.90
10051;DHT22;5065;46.942;7.432;2023-04-15T07:28:04;9.10;99.90
10051;DHT22;5065;46.942;7.432;2023-04-15T07:30:31;9.10;99.90
10051;DHT22;5065;46.942;7.432;2023-04-15T07:32:59;9.20;99.90
10051;DHT22;5065;46.942;7.432;2023-04-15T07:35:26;9.20;99.90
10051;DHT22;5065;46.942;7.432;2023-04-15T07:37:54;9.20;99.90
10051;DHT22;5065;46.942;7.432;2023-04-15T07:40:21;9.20;99.90
10051;DHT22;5065;46.942;7.432;2023-04-15T07:42:48;9.20;99.90
10051;DHT22;5065;46.942;7.432;2023-04-15T07:45:17;9.20;99.90
10051;DHT22;5065;46.942;7.432;2023-04-15T07:47:44;9.20;99.90
10051;DHT22;5065;46.942;7.432;2023-04-15T07:50:11;9.20;99.90
10051;DHT22;5065;46.942;7.432;2023-04-15T07:52:39;9.30;99.90
10051;DHT22;5065;46.942;7.432;2023-04-15T07:55:07;9.30;99.90
10051;DHT22;5065;46.942;7.432;2023-04-15T07:57:35;9.20;99.90
10051;DHT22;5065;46.942;7.432;2023-04-15T08:00:04;9.30;99.90
10051;DHT22;5065;46.942;7.432;2023-04-15T08:02:34;9.40;99.90
10051;DHT22;5065;46.942;7.432;2023-04-15T08:05:01;9.40;99.90
10051;DHT22;5065;46.942;7.432;2023-04-15T08:07:29;9.40;99.90
10051;DHT22;5065;46.942;7.432;2023-04-15T08:09:57;9.40;99.90
10051;DHT22;5065;46.942;7.432;2023-04-15T08:12:24;9.40;99.90
10051;DHT22;5065;46.942;7.432;2023-04-15T08:14:51;9.30;99.90
10051;DHT22;5065;46.942;7.432;2023-04-15T08:17:19;9.40;99.90
10051;DHT22;5065;46.942;7.432;2023-04-15T08:19:48;9.40;99.90
10051;DHT22;5065;46.942;7.432;2023-04-15T08:22:15;9.40;99.90
10051;DHT22;5065;46.942;7.432;2023-04-15T08:24:42;9.40;99.90
10051;DHT22;5065;46.942;7.432;2023-04-15T08:27:09;9.50;99.90
10051;DHT22;5065;46.942;7.432;2023-04-15T08:29:37;9.40;99.90
10051;DHT22;5065;46.942;7.432;2023-04-15T08:32:05;9.40;99.90
10051;DHT22;5065;46.942;7.432;2023-04-15T08:34:32;9.50;99.90
10051;DHT22;5065;46.942;7.432;2023-04-15T08:37:02;9.40;99.90
10051;DHT22;5065;46.942;7.432;2023-04-15T08:39:29;9.40;99.90
10051;DHT22;5065;46.942;7.432;2023-04-15T08:42:00;9.40;99.90
10051;DHT22;5065;46.942;7.432;2023-04-15T08:44:29;9.40;99.90
10051;DHT22;5065;46.942;7.432;2023-04-15T08:47:00;9.40;99.90
10051;DHT22;5065;46.942;7.432;2023-04-15T08:49:28;9.40;99.90
10051;DHT22;5065;46.942;7.432;2023-04-15T08:51:58;9.40;99.90
10051;DHT22;5065;46.942;7.432;2023-04-15T08:54:28;9.50;99.90
10051;DHT22;5065;46.942;7.432;2023-04-15T08:56:56;9.50;99.90
10051;DHT22;5065;46.942;7.432;2023-04-15T08:59:24;9.50;99.90
10051;DHT22;5065;46.942;7.432;2023-04-15T09:01:51;9.60;99.90
10051;DHT22;5065;46.942;7.432;2023-04-15T09:04:20;9.60;99.90
10051;DHT22;5065;46.942;7.432;2023-04-15T09:06:47;9.60;99.90
10051;DHT22;5065;46.942;7.432;2023-04-15T09:09:14;9.70;99.90
10051;DHT22;5065;46.942;7.432;2023-04-15T09:11:43;9.70;99.90
10051;DHT22;5065;46.942;7.432;2023-04-15T09:14:10;9.80;99.90
10051;DHT22;5065;46.942;7.432;2023-04-15T09:16:57;9.80;99.90
10051;DHT22;5065;46.942;7.432;2023-04-15T09:19:24;9.80;99.90
10051;DHT22;5065;46.942;7.432;2023-04-15T09:21:53;9.80;99.90
10051;DHT22;5065;46.942;7.432;2023-04-15T09:24:21;9.80;99.90
10051;DHT22;5065;46.942;7.432;2023-04-15T09:26:53;9.80;99.90
10051;DHT22;5065;46.942;7.432;2023-04-15T09:29:24;9.90;99.90
10051;DHT22;5065;46.942;7.432;2023-04-15T09:31:51;9.90;99.90
10051;DHT22;5065;46.942;7.432;2023-04-15T09:34:19;10.00;99.90
10051;DHT22;5065;46.942;7.432;2023-04-15T09:36:56;10.00;99.90
10051;DHT22;5065;46.942;7.432;2023-04-15T09:39:23;10.00;99.90
10051;DHT22;5065;46.942;7.432;2023-04-15T09:42:05;10.10;99.90
10051;DHT22;5065;46.942;7.432;2023-04-15T09:44:34;10.10;99.90
10051;DHT22;5065;46.942;7.432;2023-04-15T09:47:01;10.10;99.90
10051;DHT22;5065;46.942;7.432;2023-04-15T09:49:29;10.20;99.90
10051;DHT22;5065;46.942;7.432;2023-04-15T09:52:00;10.20;99.90
10051;DHT22;5065;46.942;7.432;2023-04-15T09:54:37;10.20;99.90
10051;DHT22;5065;46.942;7.432;2023-04-15T09:57:07;10.30;99.90
10051;DHT22;5065;46.942;7.432;2023-04-15T09:59:34;10.30;99.90
10051;DHT22;5065;46.942;7.432;2023-04-15T10:02:04;10.40;99.90
10051;DHT22;5065;46.942;7.432;2023-04-15T10:04:34;10.40;99.90
10051;DHT22;5065;46.942;7.432;2023-04-15T10:07:03;10.50;99.90
10051;DHT22;5065;46.942;7.432;2023-04-15T10:09:31;10.50;99.90
10051;DHT22;5065;46.942;7.432;2023-04-15T10:11:59;10.50;99.90
10051;DHT22;5065;46.942;7.432;2023-04-15T10:14:34;10.60;99.90
10051;DHT22;5065;46.942;7.432;2023-04-15T10:17:04;10.60;99.90
10051;DHT22;5065;46.942;7.432;2023-04-15T10:19:33;10.70;99.90
10051;DHT22;5065;46.942;7.432;2023-04-15T10:22:06;10.70;99.90
10051;DHT22;5065;46.942;7.432;2023-04-15T10:24:34;10.80;99.90
10051;DHT22;5065;46.942;7.432;2023-04-15T10:27:02;10.80;99.90
10051;DHT22;5065;46.942;7.432;2023-04-15T10:29:33;10.90;99.90
10051;DHT22;5065;46.942;7.432;2023-04-15T10:32:01;10.90;99.90
10051;DHT22;5065;46.942;7.432;2023-04-15T10:34:29;10.90;99.90
10051;DHT22;5065;46.942;7.432;2023-04-15T10:37:02;10.90;99.90
10051;DHT22;5065;46.942;7.432;2023-04-15T10:39:42;10.90;99.90
10051;DHT22;5065;46.942;7.432;2023-04-15T10:42:10;10.90;99.90
10051;DHT22;5065;46.942;7.432;2023-04-15T10:44:42;10.80;99.90
10051;DHT22;5065;46.942;7.432;2023-04-15T10:47:13;10.80;99.90
10051;DHT22;5065;46.942;7.432;2023-04-15T10:49:47;10.80;99.90
10051;DHT22;5065;46.942;7.432;2023-04-15T10:52:16;10.90;99.90
10051;DHT22;5065;46.942;7.432;2023-04-15T10:54:44;10.90;99.90
10051;DHT22;5065;46.942;7.432;2023-04-15T10:57:16;10.90;99.90
10051;DHT22;5065;46.942;7.432;2023-04-15T11:00:08;10.90;99.90
10051;DHT22;5065;46.942;7.432;2023-04-15T11:02:44;10.90;99.90
10051;DHT22;5065;46.942;7.432;2023-04-15T11:05:12;10.90;99.90
10051;DHT22;5065;46.942;7.432;2023-04-15T11:07:47;11.00;99.90
10051;DHT22;5065;46.942;7.432;2023-04-15T11:13:27;11.00;99.90
10051;DHT22;5065;46.942;7.432;2023-04-15T11:15:59;11.10;99.90
10051;DHT22;5065;46.942;7.432;2023-04-15T11:18:29;11.10;99.90
10051;DHT22;5065;46.942;7.432;2023-04-15T11:20:59;11.10;99.90
10051;DHT22;5065;46.942;7.432;2023-04-15T11:23:37;11.10;99.90
10051;DHT22;5065;46.942;7.432;2023-04-15T11:26:06;11.20;99.90
10051;DHT22;5065;46.942;7.432;2023-04-15T11:28:37;11.30;99.90
10051;DHT22;5065;46.942;7.432;2023-04-15T11:31:08;11.30;99.90
10051;DHT22;5065;46.942;7.432;2023-04-15T11:33:38;11.30;99.90
10051;DHT22;5065;46.942;7.432;2023-04-15T11:36:05;11.30;99.90
10051;DHT22;5065;46.942;7.432;2023-04-15T11:38:33;11.30;99.90
10051;DHT22;5065;46.942;7.432;2023-04-15T11:41:02;11.30;99.90
10051;DHT22;5065;46.942;7.432;2023-04-15T11:43:31;11.20;99.90
10051;DHT22;5065;46.942;7.432;2023-04-15T11:46:01;11.20;99.90
10051;DHT22;5065;46.942;7.432;2023-04-15T11:48:32;11.20;99.90
10051;DHT22;5065;46.942;7.432;2023-04-15T11:51:00;11.30;99.90
10051;DHT22;5065;46.942;7.432;2023-04-15T11:53:37;11.30;99.90
10051;DHT22;5065;46.942;7.432;2023-04-15T11:56:06;11.40;99.90
10051;DHT22;5065;46.942;7.432;2023-04-15T11:58:35;11.40;99.90
10051;DHT22;5065;46.942;7.432;2023-04-15T12:01:04;11.50;99.90
10051;DHT22;5065;46.942;7.432;2023-04-15T12:03:38;11.60;99.90
10051;DHT22;5065;46.942;7.432;2023-04-15T12:06:10;11.60;99.90
10051;DHT22;5065;46.942;7.432;2023-04-15T12:09:09;11.70;99.90
10051;DHT22;5065;46.942;7.432;2023-04-15T12:11:46;11.70;99.90
10051;DHT22;5065;46.942;7.432;2023-04-15T12:14:23;11.70;99.90
10051;DHT22;5065;46.942;7.432;2023-04-15T12:16:52;11.70;99.90
10051;DHT22;5065;46.942;7.432;2023-04-15T12:19:24;11.70;99.90
10051;DHT22;5065;46.942;7.432;2023-04-15T12:21:56;11.80;99.90
10051;DHT22;5065;46.942;7.432;2023-04-15T12:24:24;11.90;99.90
10051;DHT22;5065;46.942;7.432;2023-04-15T12:26:53;11.90;99.90
10051;DHT22;5065;46.942;7.432;2023-04-15T12:29:25;12.00;99.90
10051;DHT22;5065;46.942;7.432;2023-04-15T12:31:54;12.00;99.90
10051;DHT22;5065;46.942;7.432;2023-04-15T12:34:28;12.00;99.90
10051;DHT22;5065;46.942;7.432;2023-04-15T12:36:56;12.10;99.90
10051;DHT22;5065;46.942;7.432;2023-04-15T12:39:24;12.10;99.90
10051;DHT22;5065;46.942;7.432;2023-04-15T12:41:51;12.10;99.90
10051;DHT22;5065;46.942;7.432;2023-04-15T12:44:20;12.10;99.90
10051;DHT22;5065;46.942;7.432;2023-04-15T12:46:48;12.20;99.90
10051;DHT22;5065;46.942;7.432;2023-04-15T12:49:15;12.10;99.90
10051;DHT22;5065;46.942;7.432;2023-04-15T12:51:47;12.00;99.90
10051;DHT22;5065;46.942;7.432;2023-04-15T12:54:15;11.80;99.90
10051;DHT22;5065;46.942;7.432;2023-04-15T12:56:42;11.70;99.90
10051;DHT22;5065;46.942;7.432;2023-04-15T12:59:10;11.60;99.90
10051;DHT22;5065;46.942;7.432;2023-04-15T13:01:38;11.50;99.90
10051;DHT22;5065;46.942;7.432;2023-04-15T13:04:06;11.50;99.90
10051;DHT22;5065;46.942;7.432;2023-04-15T13:06:33;11.50;99.90
10051;DHT22;5065;46.942;7.432;2023-04-15T13:09:02;11.50;99.90
10051;DHT22;5065;46.942;7.432;2023-04-15T13:11:30;11.50;99.90
10051;DHT22;5065;46.942;7.432;2023-04-15T13:13:59;11.50;99.90
10051;DHT22;5065;46.942;7.432;2023-04-15T13:16:26;11.50;99.90
10051;DHT22;5065;46.942;7.432;2023-04-15T13:18:54;11.40;99.90
10051;DHT22;5065;46.942;7.432;2023-04-15T13:21:21;11.40;99.90
10051;DHT22;5065;46.942;7.432;2023-04-15T13:23:48;11.40;99.90
10051;DHT22;5065;46.942;7.432;2023-04-15T13:26:18;11.40;99.90
10051;DHT22;5065;46.942;7.432;2023-04-15T13:28:45;11.40;99.90
10051;DHT22;5065;46.942;7.432;2023-04-15T13:31:12;11.40;99.90
10051;DHT22;5065;46.942;7.432;2023-04-15T13:33:39;11.30;99.90
10051;DHT22;5065;46.942;7.432;2023-04-15T13:36:07;11.30;99.90
10051;DHT22;5065;46.942;7.432;2023-04-15T13:38:34;11.20;99.90
10051;DHT22;5065;46.942;7.432;2023-04-15T13:41:01;11.20;99.90
10051;DHT22;5065;46.942;7.432;2023-04-15T13:43:30;11.10;99.90
10051;DHT22;5065;46.942;7.432;2023-04-15T13:45:58;11.10;99.90
10051;DHT22;5065;46.942;7.432;2023-04-15T13:48:27;11.10;99.90
10051;DHT22;5065;46.942;7.432;2023-04-15T13:50:54;11.10;99.90
10051;DHT22;5065;46.942;7.432;2023-04-15T13:53:21;11.00;99.90
10051;DHT22;5065;46.942;7.432;2023-04-15T13:55:49;11.00;99.90
10051;DHT22;5065;46.942;7.432;2023-04-15T13:58:16;11.00;99.90
10051;DHT22;5065;46.942;7.432;2023-04-15T14:00:44;10.90;99.90
10051;DHT22;5065;46.942;7.432;2023-04-15T14:03:12;10.90;99.90
10051;DHT22;5065;46.942;7.432;2023-04-15T14:05:39;10.90;99.90
10051;DHT22;5065;46.942;7.432;2023-04-15T14:08:06;10.90;99.90
10051;DHT22;5065;46.942;7.432;2023-04-15T14:10:34;10.90;99.90
10051;DHT22;5065;46.942;7.432;2023-04-15T14:13:01;10.90;99.90
10051;DHT22;5065;46.942;7.432;2023-04-15T14:15:28;10.90;99.90
10051;DHT22;5065;46.942;7.432;2023-04-15T14:17:57;10.90;99.90
10051;DHT22;5065;46.942;7.432;2023-04-15T14:20:24;10.90;99.90
10051;DHT22;5065;46.942;7.432;2023-04-15T14:22:53;10.90;99.90
10051;DHT22;5065;46.942;7.432;2023-04-15T14:25:21;10.90;99.90
10051;DHT22;5065;46.942;7.432;2023-04-15T14:27:48;10.90;99.90
10051;DHT22;5065;46.942;7.432;2023-04-15T14:30:16;10.90;99.90
10051;DHT22;5065;46.942;7.432;2023-04-15T14:32:43;10.90;99.90
10051;DHT22;5065;46.942;7.432;2023-04-15T14:35:11;10.90;99.90
10051;DHT22;5065;46.942;7.432;2023-04-15T14:37:39;10.80;99.90
10051;DHT22;5065;46.942;7.432;2023-04-15T14:40:08;10.80;99.90
10051;DHT22;5065;46.942;7.432;2023-04-15T14:42:35;10.90;99.90
10051;DHT22;5065;46.942;7.432;2023-04-15T14:45:05;10.90;99.90
10051;DHT22;5065;46.942;7.432;2023-04-15T14:47:33;10.90;99.90
10051;DHT22;5065;46.942;7.432;2023-04-15T14:50:00;10.90;99.90
10051;DHT22;5065;46.942;7.432;2023-04-15T14:52:29;10.90;99.90
10051;DHT22;5065;46.942;7.432;2023-04-15T14:54:57;10.90;99.90
10051;DHT22;5065;46.942;7.432;2023-04-15T14:57:24;10.90;99.90
10051;DHT22;5065;46.942;7.432;2023-04-15T14:59:53;10.80;99.90
10051;DHT22;5065;46.942;7.432;2023-04-15T15:02:21;10.80;99.90
10051;DHT22;5065;46.942;7.432;2023-04-15T15:04:48;10.80;99.90
10051;DHT22;5065;46.942;7.432;2023-04-15T15:07:16;10.80;99.90
10051;DHT22;5065;46.942;7.432;2023-04-15T15:09:44;10.80;99.90
10051;DHT22;5065;46.942;7.432;2023-04-15T15:12:11;10.80;99.90
10051;DHT22;5065;46.942;7.432;2023-04-15T15:14:39;10.80;99.90
10051;DHT22;5065;46.942;7.432;2023-04-15T15:17:06;10.80;99.90
10051;DHT22;5065;46.942;7.432;2023-04-15T15:19:33;10.80;99.90
10051;DHT22;5065;46.942;7.432;2023-04-15T15:22:01;10.80;99.90
10051;DHT22;5065;46.942;7.432;2023-04-15T15:24:29;10.80;99.90
10051;DHT22;5065;46.942;7.432;2023-04-15T15:26:57;10.80;99.90
10051;DHT22;5065;46.942;7.432;2023-04-15T15:29:25;10.80;99.90
10051;DHT22;5065;46.942;7.432;2023-04-15T15:31:52;10.80;99.90
10051;DHT22;5065;46.942;7.432;2023-04-15T15:34:20;10.90;99.90
10051;DHT22;5065;46.942;7.432;2023-04-15T15:36:47;10.90;99.90
10051;DHT22;5065;46.942;7.432;2023-04-15T15:39:15;10.90;99.90
10051;DHT22;5065;46.942;7.432;2023-04-15T15:41:42;10.90;99.90
10051;DHT22;5065;46.942;7.432;2023-04-15T15:44:10;10.80;99.90
10051;DHT22;5065;46.942;7.432;2023-04-15T15:46:38;10.80;99.90
10051;DHT22;5065;46.942;7.432;2023-04-15T15:49:06;10.80;99.90
10051;DHT22;5065;46.942;7.432;2023-04-15T15:51:33;10.80;99.90
10051;DHT22;5065;46.942;7.432;2023-04-15T15:54:00;10.80;99.90
10051;DHT22;5065;46.942;7.432;2023-04-15T15:56:28;10.80;99.90
10051;DHT22;5065;46.942;7.432;2023-04-15T15:58:56;10.80;99.90
10051;DHT22;5065;46.942;7.432;2023-04-15T16:01:24;10.90;99.90